Sand Lake, South Dakota
Current Conditions -  °F | °C
As of 12:53 PM on Thursday 30 Oct 2014 (Local Time) from KABR Reporting Station
Overcast Overcast  
Wind Chill: 34°   Ceiling: 1800
Heat Index: 42°   Visibility: 10mi
Dew Point: 34°   Wind: 17mph
Humidity: 73%   Direction: 10°N
Pressure: 30.28"   Gusts: 29mph
Location:  45.6832°N, 98.2967°W
Report Text: KABR 301753Z AUTO 01015G25KT 10SM OVC018 06/01 A3028 RMK AO2 SLP263 T00560011 10056 20028 51037
Loading
Personal Weather Stations






























Interactive Weather Map
Tropical Storm Tracking
New forecast layout! Learn more

10-Day Weather Forecast

Advertisements
Track Severe Weather on mobile